sensor_id;sensor_type;location;lat;lon;timestamp;P1;durP1;ratioP1;P2;durP2;ratioP2
5209;SDS011;2624;48.048;11.706;2023-02-28T00:00:01;1.13;;;1.03;;
5209;SDS011;2624;48.048;11.706;2023-02-28T00:05:10;1.50;;;1.40;;
5209;SDS011;2624;48.048;11.706;2023-02-28T00:10:14;0.77;;;0.73;;
5209;SDS011;2624;48.048;11.706;2023-02-28T00:15:20;0.87;;;0.87;;
5209;SDS011;2624;48.048;11.706;2023-02-28T00:20:24;0.77;;;0.77;;
5209;SDS011;2624;48.048;11.706;2023-02-28T00:25:26;1.03;;;0.80;;
5209;SDS011;2624;48.048;11.706;2023-02-28T00:30:28;0.93;;;0.90;;
5209;SDS011;2624;48.048;11.706;2023-02-28T00:35:31;0.80;;;0.80;;
5209;SDS011;2624;48.048;11.706;2023-02-28T00:40:33;1.97;;;0.90;;
5209;SDS011;2624;48.048;11.706;2023-02-28T00:45:35;0.90;;;0.90;;
5209;SDS011;2624;48.048;11.706;2023-02-28T00:50:38;0.87;;;0.87;;
5209;SDS011;2624;48.048;11.706;2023-02-28T00:55:39;0.73;;;0.73;;
5209;SDS011;2624;48.048;11.706;2023-02-28T01:00:41;1.87;;;1.00;;
5209;SDS011;2624;48.048;11.706;2023-02-28T01:05:44;0.57;;;0.57;;
5209;SDS011;2624;48.048;11.706;2023-02-28T01:10:47;0.87;;;0.80;;
5209;SDS011;2624;48.048;11.706;2023-02-28T01:15:50;1.00;;;0.83;;
5209;SDS011;2624;48.048;11.706;2023-02-28T01:20:54;1.07;;;1.00;;
5209;SDS011;2624;48.048;11.706;2023-02-28T01:25:56;1.17;;;1.17;;
5209;SDS011;2624;48.048;11.706;2023-02-28T01:30:58;6.60;;;1.20;;
5209;SDS011;2624;48.048;11.706;2023-02-28T01:36:02;1.87;;;1.20;;
5209;SDS011;2624;48.048;11.706;2023-02-28T01:41:05;0.70;;;0.70;;
5209;SDS011;2624;48.048;11.706;2023-02-28T01:46:08;0.80;;;0.80;;
5209;SDS011;2624;48.048;11.706;2023-02-28T01:51:13;0.90;;;0.90;;
5209;SDS011;2624;48.048;11.706;2023-02-28T01:56:19;0.70;;;0.70;;
5209;SDS011;2624;48.048;11.706;2023-02-28T02:01:25;1.00;;;0.80;;
5209;SDS011;2624;48.048;11.706;2023-02-28T02:06:30;1.37;;;0.80;;
5209;SDS011;2624;48.048;11.706;2023-02-28T02:11:39;0.90;;;0.90;;
5209;SDS011;2624;48.048;11.706;2023-02-28T02:16:47;1.03;;;0.80;;
5209;SDS011;2624;48.048;11.706;2023-02-28T02:22:01;3.43;;;1.27;;
5209;SDS011;2624;48.048;11.706;2023-02-28T02:27:20;0.93;;;0.93;;
5209;SDS011;2624;48.048;11.706;2023-02-28T02:32:47;0.73;;;0.73;;
5209;SDS011;2624;48.048;11.706;2023-02-28T02:38:06;0.70;;;0.70;;
5209;SDS011;2624;48.048;11.706;2023-02-28T02:43:13;2.00;;;1.23;;
5209;SDS011;2624;48.048;11.706;2023-02-28T02:48:20;2.43;;;0.93;;
5209;SDS011;2624;48.048;11.706;2023-02-28T02:53:34;2.07;;;1.07;;
5209;SDS011;2624;48.048;11.706;2023-02-28T02:58:40;0.90;;;0.90;;
5209;SDS011;2624;48.048;11.706;2023-02-28T03:03:44;1.10;;;1.10;;
5209;SDS011;2624;48.048;11.706;2023-02-28T03:08:48;1.10;;;1.10;;
5209;SDS011;2624;48.048;11.706;2023-02-28T03:14:05;0.80;;;0.80;;
5209;SDS011;2624;48.048;11.706;2023-02-28T03:19:31;0.83;;;0.83;;
5209;SDS011;2624;48.048;11.706;2023-02-28T03:24:43;1.30;;;1.30;;
5209;SDS011;2624;48.048;11.706;2023-02-28T03:29:51;1.33;;;1.20;;
5209;SDS011;2624;48.048;11.706;2023-02-28T03:35:02;1.00;;;1.00;;
5209;SDS011;2624;48.048;11.706;2023-02-28T03:40:11;1.30;;;1.20;;
5209;SDS011;2624;48.048;11.706;2023-02-28T03:45:18;3.63;;;0.80;;
5209;SDS011;2624;48.048;11.706;2023-02-28T03:50:23;0.87;;;0.87;;
5209;SDS011;2624;48.048;11.706;2023-02-28T03:55:30;2.10;;;1.50;;
5209;SDS011;2624;48.048;11.706;2023-02-28T04:00:37;1.00;;;1.00;;
5209;SDS011;2624;48.048;11.706;2023-02-28T04:05:45;0.80;;;0.80;;
5209;SDS011;2624;48.048;11.706;2023-02-28T04:10:53;1.27;;;1.17;;
5209;SDS011;2624;48.048;11.706;2023-02-28T04:15:58;0.70;;;0.70;;
5209;SDS011;2624;48.048;11.706;2023-02-28T04:21:00;1.90;;;1.40;;
5209;SDS011;2624;48.048;11.706;2023-02-28T04:26:03;1.20;;;1.20;;
5209;SDS011;2624;48.048;11.706;2023-02-28T04:31:05;0.70;;;0.70;;
5209;SDS011;2624;48.048;11.706;2023-02-28T04:36:08;1.20;;;1.10;;
5209;SDS011;2624;48.048;11.706;2023-02-28T04:41:11;2.50;;;1.20;;
5209;SDS011;2624;48.048;11.706;2023-02-28T04:46:13;1.23;;;1.03;;
5209;SDS011;2624;48.048;11.706;2023-02-28T04:51:16;0.93;;;0.87;;
5209;SDS011;2624;48.048;11.706;2023-02-28T04:56:20;1.47;;;1.13;;
5209;SDS011;2624;48.048;11.706;2023-02-28T05:01:23;0.97;;;0.83;;
5209;SDS011;2624;48.048;11.706;2023-02-28T05:06:27;1.27;;;1.17;;
5209;SDS011;2624;48.048;11.706;2023-02-28T05:11:32;1.63;;;1.00;;
5209;SDS011;2624;48.048;11.706;2023-02-28T05:16:35;1.17;;;1.03;;
5209;SDS011;2624;48.048;11.706;2023-02-28T05:21:37;0.87;;;0.87;;
5209;SDS011;2624;48.048;11.706;2023-02-28T05:26:42;1.60;;;1.50;;
5209;SDS011;2624;48.048;11.706;2023-02-28T05:31:44;2.03;;;1.93;;
5209;SDS011;2624;48.048;11.706;2023-02-28T05:36:46;1.43;;;1.37;;
5209;SDS011;2624;48.048;11.706;2023-02-28T05:41:49;0.87;;;0.87;;
5209;SDS011;2624;48.048;11.706;2023-02-28T05:46:51;1.70;;;1.60;;
5209;SDS011;2624;48.048;11.706;2023-02-28T05:51:52;2.20;;;1.40;;
5209;SDS011;2624;48.048;11.706;2023-02-28T05:56:55;1.60;;;1.50;;
5209;SDS011;2624;48.048;11.706;2023-02-28T06:01:57;1.63;;;1.53;;
5209;SDS011;2624;48.048;11.706;2023-02-28T06:06:59;2.00;;;1.70;;
5209;SDS011;2624;48.048;11.706;2023-02-28T06:12:04;4.80;;;1.63;;
5209;SDS011;2624;48.048;11.706;2023-02-28T06:17:08;9.37;;;2.17;;
5209;SDS011;2624;48.048;11.706;2023-02-28T06:22:10;6.10;;;2.30;;
5209;SDS011;2624;48.048;11.706;2023-02-28T06:27:13;3.93;;;2.40;;
5209;SDS011;2624;48.048;11.706;2023-02-28T06:32:15;4.27;;;1.50;;
5209;SDS011;2624;48.048;11.706;2023-02-28T06:37:16;5.43;;;2.53;;
5209;SDS011;2624;48.048;11.706;2023-02-28T06:42:20;2.77;;;2.30;;
5209;SDS011;2624;48.048;11.706;2023-02-28T06:47:24;4.00;;;2.27;;
5209;SDS011;2624;48.048;11.706;2023-02-28T06:52:26;3.60;;;2.73;;
5209;SDS011;2624;48.048;11.706;2023-02-28T06:57:29;7.07;;;3.13;;
5209;SDS011;2624;48.048;11.706;2023-02-28T07:02:32;5.33;;;3.13;;
5209;SDS011;2624;48.048;11.706;2023-02-28T07:07:34;8.07;;;4.77;;
5209;SDS011;2624;48.048;11.706;2023-02-28T07:12:39;6.87;;;4.27;;
5209;SDS011;2624;48.048;11.706;2023-02-28T07:17:41;7.50;;;4.87;;
5209;SDS011;2624;48.048;11.706;2023-02-28T07:22:43;10.37;;;4.10;;
5209;SDS011;2624;48.048;11.706;2023-02-28T07:27:46;4.97;;;3.10;;
5209;SDS011;2624;48.048;11.706;2023-02-28T07:32:47;3.03;;;2.33;;
5209;SDS011;2624;48.048;11.706;2023-02-28T07:37:49;9.10;;;4.87;;
5209;SDS011;2624;48.048;11.706;2023-02-28T07:42:52;6.27;;;4.03;;
5209;SDS011;2624;48.048;11.706;2023-02-28T07:47:54;10.73;;;7.10;;
5209;SDS011;2624;48.048;11.706;2023-02-28T07:52:57;10.70;;;6.17;;
5209;SDS011;2624;48.048;11.706;2023-02-28T07:58:00;5.70;;;4.17;;
5209;SDS011;2624;48.048;11.706;2023-02-28T08:03:02;10.87;;;4.90;;
5209;SDS011;2624;48.048;11.706;2023-02-28T08:08:04;15.30;;;5.10;;
5209;SDS011;2624;48.048;11.706;2023-02-28T08:13:07;8.00;;;5.60;;
5209;SDS011;2624;48.048;11.706;2023-02-28T08:18:09;14.00;;;8.10;;
5209;SDS011;2624;48.048;11.706;2023-02-28T08:23:11;10.37;;;5.60;;
5209;SDS011;2624;48.048;11.706;2023-02-28T08:28:14;8.13;;;3.90;;
5209;SDS011;2624;48.048;11.706;2023-02-28T08:33:16;10.10;;;6.27;;
5209;SDS011;2624;48.048;11.706;2023-02-28T08:38:17;10.00;;;5.20;;
5209;SDS011;2624;48.048;11.706;2023-02-28T08:43:20;11.00;;;5.63;;
5209;SDS011;2624;48.048;11.706;2023-02-28T08:48:22;13.40;;;7.40;;
5209;SDS011;2624;48.048;11.706;2023-02-28T08:53:24;10.00;;;5.87;;
5209;SDS011;2624;48.048;11.706;2023-02-28T08:58:27;11.87;;;6.20;;
5209;SDS011;2624;48.048;11.706;2023-02-28T09:03:29;15.90;;;5.90;;
5209;SDS011;2624;48.048;11.706;2023-02-28T09:08:31;5.70;;;3.63;;
5209;SDS011;2624;48.048;11.706;2023-02-28T09:13:34;10.50;;;6.60;;
5209;SDS011;2624;48.048;11.706;2023-02-28T09:18:36;14.97;;;7.57;;
5209;SDS011;2624;48.048;11.706;2023-02-28T09:23:38;15.30;;;8.40;;
5209;SDS011;2624;48.048;11.706;2023-02-28T09:28:42;9.67;;;4.73;;
5209;SDS011;2624;48.048;11.706;2023-02-28T09:33:44;12.50;;;5.00;;
5209;SDS011;2624;48.048;11.706;2023-02-28T09:38:45;15.43;;;6.70;;
5209;SDS011;2624;48.048;11.706;2023-02-28T09:43:49;14.67;;;8.27;;
5209;SDS011;2624;48.048;11.706;2023-02-28T09:48:54;7.93;;;5.60;;
5209;SDS011;2624;48.048;11.706;2023-02-28T09:53:58;13.67;;;8.30;;
5209;SDS011;2624;48.048;11.706;2023-02-28T09:59:02;11.83;;;5.67;;
5209;SDS011;2624;48.048;11.706;2023-02-28T10:04:12;14.30;;;9.40;;
5209;SDS011;2624;48.048;11.706;2023-02-28T10:09:26;12.90;;;8.40;;
5209;SDS011;2624;48.048;11.706;2023-02-28T10:14:33;14.40;;;8.50;;
5209;SDS011;2624;48.048;11.706;2023-02-28T10:19:38;19.13;;;8.57;;
5209;SDS011;2624;48.048;11.706;2023-02-28T10:24:44;20.63;;;10.50;;
5209;SDS011;2624;48.048;11.706;2023-02-28T10:29:49;15.53;;;8.17;;
5209;SDS011;2624;48.048;11.706;2023-02-28T10:34:52;5.57;;;4.13;;
5209;SDS011;2624;48.048;11.706;2023-02-28T10:39:57;12.27;;;7.73;;
5209;SDS011;2624;48.048;11.706;2023-02-28T10:45:09;22.43;;;11.07;;
5209;SDS011;2624;48.048;11.706;2023-02-28T10:50:26;16.50;;;9.30;;
5209;SDS011;2624;48.048;11.706;2023-02-28T10:55:29;13.67;;;6.83;;
5209;SDS011;2624;48.048;11.706;2023-02-28T11:00:34;15.97;;;9.13;;
5209;SDS011;2624;48.048;11.706;2023-02-28T11:05:37;6.40;;;4.50;;
5209;SDS011;2624;48.048;11.706;2023-02-28T11:10:38;17.73;;;9.17;;
5209;SDS011;2624;48.048;11.706;2023-02-28T11:15:42;9.20;;;5.33;;
5209;SDS011;2624;48.048;11.706;2023-02-28T11:20:51;13.10;;;7.37;;
5209;SDS011;2624;48.048;11.706;2023-02-28T11:25:56;13.30;;;7.10;;
5209;SDS011;2624;48.048;11.706;2023-02-28T11:31:03;17.43;;;9.70;;
5209;SDS011;2624;48.048;11.706;2023-02-28T11:36:10;21.23;;;7.87;;
5209;SDS011;2624;48.048;11.706;2023-02-28T11:41:28;23.80;;;14.10;;
5209;SDS011;2624;48.048;11.706;2023-02-28T11:46:47;20.93;;;8.27;;
5209;SDS011;2624;48.048;11.706;2023-02-28T11:51:53;21.70;;;12.20;;
5209;SDS011;2624;48.048;11.706;2023-02-28T11:57:17;24.83;;;13.30;;
5209;SDS011;2624;48.048;11.706;2023-02-28T12:02:33;19.00;;;10.77;;
5209;SDS011;2624;48.048;11.706;2023-02-28T12:07:48;25.30;;;10.40;;
5209;SDS011;2624;48.048;11.706;2023-02-28T12:13:00;17.10;;;8.13;;
5209;SDS011;2624;48.048;11.706;2023-02-28T12:18:14;17.90;;;8.30;;
5209;SDS011;2624;48.048;11.706;2023-02-28T12:23:45;18.17;;;8.33;;
5209;SDS011;2624;48.048;11.706;2023-02-28T12:29:04;17.20;;;9.30;;
5209;SDS011;2624;48.048;11.706;2023-02-28T12:34:16;13.40;;;9.13;;
5209;SDS011;2624;48.048;11.706;2023-02-28T12:39:23;11.00;;;7.50;;
5209;SDS011;2624;48.048;11.706;2023-02-28T12:44:29;13.57;;;7.73;;
5209;SDS011;2624;48.048;11.706;2023-02-28T12:49:37;18.43;;;9.57;;
5209;SDS011;2624;48.048;11.706;2023-02-28T12:54:44;17.97;;;8.00;;
5209;SDS011;2624;48.048;11.706;2023-02-28T12:59:51;22.90;;;7.50;;
5209;SDS011;2624;48.048;11.706;2023-02-28T13:04:59;20.63;;;13.53;;
5209;SDS011;2624;48.048;11.706;2023-02-28T13:10:13;18.17;;;11.23;;
5209;SDS011;2624;48.048;11.706;2023-02-28T13:15:19;16.17;;;9.80;;
5209;SDS011;2624;48.048;11.706;2023-02-28T13:20:26;13.70;;;9.80;;
5209;SDS011;2624;48.048;11.706;2023-02-28T13:31:04;15.13;;;8.83;;
5209;SDS011;2624;48.048;11.706;2023-02-28T13:36:09;20.73;;;8.67;;
5209;SDS011;2624;48.048;11.706;2023-02-28T13:52:23;21.50;;;12.20;;
5209;SDS011;2624;48.048;11.706;2023-02-28T13:57:28;22.07;;;12.23;;
5209;SDS011;2624;48.048;11.706;2023-02-28T14:02:47;9.60;;;6.50;;
5209;SDS011;2624;48.048;11.706;2023-02-28T14:08:05;27.37;;;14.23;;
5209;SDS011;2624;48.048;11.706;2023-02-28T14:13:36;19.13;;;9.20;;
5209;SDS011;2624;48.048;11.706;2023-02-28T14:18:48;17.03;;;8.87;;
5209;SDS011;2624;48.048;11.706;2023-02-28T14:29:35;17.63;;;9.83;;
5209;SDS011;2624;48.048;11.706;2023-02-28T14:35:13;16.90;;;9.97;;
5209;SDS011;2624;48.048;11.706;2023-02-28T14:40:25;10.60;;;5.80;;
5209;SDS011;2624;48.048;11.706;2023-02-28T14:45:33;11.90;;;7.60;;
5209;SDS011;2624;48.048;11.706;2023-02-28T14:50:37;13.33;;;6.73;;
5209;SDS011;2624;48.048;11.706;2023-02-28T14:55:43;16.67;;;9.73;;
5209;SDS011;2624;48.048;11.706;2023-02-28T15:00:48;12.20;;;6.37;;
5209;SDS011;2624;48.048;11.706;2023-02-28T15:05:52;14.10;;;6.93;;
5209;SDS011;2624;48.048;11.706;2023-02-28T15:10:56;9.67;;;6.27;;
5209;SDS011;2624;48.048;11.706;2023-02-28T15:16:02;11.60;;;7.20;;
5209;SDS011;2624;48.048;11.706;2023-02-28T15:21:07;13.57;;;7.90;;
5209;SDS011;2624;48.048;11.706;2023-02-28T15:26:13;12.73;;;6.63;;
5209;SDS011;2624;48.048;11.706;2023-02-28T15:31:20;9.80;;;5.27;;
5209;SDS011;2624;48.048;11.706;2023-02-28T15:36:26;16.37;;;6.87;;
5209;SDS011;2624;48.048;11.706;2023-02-28T15:41:30;12.37;;;7.57;;
5209;SDS011;2624;48.048;11.706;2023-02-28T15:46:39;8.80;;;5.47;;
5209;SDS011;2624;48.048;11.706;2023-02-28T15:51:42;12.40;;;6.47;;
5209;SDS011;2624;48.048;11.706;2023-02-28T15:56:45;7.17;;;5.27;;
5209;SDS011;2624;48.048;11.706;2023-02-28T16:02:03;8.57;;;5.37;;
5209;SDS011;2624;48.048;11.706;2023-02-28T16:07:14;13.77;;;7.80;;
5209;SDS011;2624;48.048;11.706;2023-02-28T16:12:19;14.73;;;8.30;;
5209;SDS011;2624;48.048;11.706;2023-02-28T16:17:24;16.77;;;9.70;;
5209;SDS011;2624;48.048;11.706;2023-02-28T16:22:27;15.93;;;7.77;;
5209;SDS011;2624;48.048;11.706;2023-02-28T16:27:30;13.73;;;7.77;;
5209;SDS011;2624;48.048;11.706;2023-02-28T16:32:37;13.90;;;8.03;;
5209;SDS011;2624;48.048;11.706;2023-02-28T16:37:39;16.63;;;9.77;;
5209;SDS011;2624;48.048;11.706;2023-02-28T16:42:41;15.00;;;8.07;;
5209;SDS011;2624;48.048;11.706;2023-02-28T16:47:46;11.87;;;7.53;;
5209;SDS011;2624;48.048;11.706;2023-02-28T16:52:48;19.93;;;7.63;;
5209;SDS011;2624;48.048;11.706;2023-02-28T16:57:53;13.93;;;7.13;;
5209;SDS011;2624;48.048;11.706;2023-02-28T17:02:58;14.80;;;7.40;;
5209;SDS011;2624;48.048;11.706;2023-02-28T17:08:00;14.70;;;8.20;;
5209;SDS011;2624;48.048;11.706;2023-02-28T17:13:01;24.50;;;10.57;;
5209;SDS011;2624;48.048;11.706;2023-02-28T17:18:05;36.70;;;16.80;;
5209;SDS011;2624;48.048;11.706;2023-02-28T17:23:08;20.47;;;10.30;;
5209;SDS011;2624;48.048;11.706;2023-02-28T17:28:10;19.10;;;8.13;;
5209;SDS011;2624;48.048;11.706;2023-02-28T17:33:13;19.57;;;9.07;;
5209;SDS011;2624;48.048;11.706;2023-02-28T17:38:16;16.33;;;9.73;;
5209;SDS011;2624;48.048;11.706;2023-02-28T17:43:18;21.57;;;9.97;;
5209;SDS011;2624;48.048;11.706;2023-02-28T17:48:21;13.20;;;7.63;;
5209;SDS011;2624;48.048;11.706;2023-02-28T17:53:23;17.00;;;8.97;;
5209;SDS011;2624;48.048;11.706;2023-02-28T17:58:27;30.27;;;11.80;;
5209;SDS011;2624;48.048;11.706;2023-02-28T18:03:32;17.00;;;7.87;;
5209;SDS011;2624;48.048;11.706;2023-02-28T18:08:34;20.53;;;10.43;;
5209;SDS011;2624;48.048;11.706;2023-02-28T18:13:36;28.40;;;13.50;;
5209;SDS011;2624;48.048;11.706;2023-02-28T18:18:39;21.63;;;9.23;;
5209;SDS011;2624;48.048;11.706;2023-02-28T18:23:42;16.20;;;7.20;;
5209;SDS011;2624;48.048;11.706;2023-02-28T18:28:47;18.33;;;8.50;;
5209;SDS011;2624;48.048;11.706;2023-02-28T18:33:51;12.30;;;6.97;;
5209;SDS011;2624;48.048;11.706;2023-02-28T18:38:53;19.07;;;7.53;;
5209;SDS011;2624;48.048;11.706;2023-02-28T18:43:55;15.70;;;8.10;;
5209;SDS011;2624;48.048;11.706;2023-02-28T18:48:58;16.33;;;8.17;;
5209;SDS011;2624;48.048;11.706;2023-02-28T18:54:00;10.63;;;6.87;;
5209;SDS011;2624;48.048;11.706;2023-02-28T18:59:02;12.57;;;5.53;;
5209;SDS011;2624;48.048;11.706;2023-02-28T19:04:09;10.47;;;6.47;;
5209;SDS011;2624;48.048;11.706;2023-02-28T19:09:13;22.20;;;9.83;;
5209;SDS011;2624;48.048;11.706;2023-02-28T19:14:15;12.60;;;7.40;;
5209;SDS011;2624;48.048;11.706;2023-02-28T19:19:18;13.83;;;6.93;;
5209;SDS011;2624;48.048;11.706;2023-02-28T19:24:20;11.70;;;7.40;;
5209;SDS011;2624;48.048;11.706;2023-02-28T19:29:22;14.47;;;6.77;;
5209;SDS011;2624;48.048;11.706;2023-02-28T19:34:25;12.77;;;7.97;;
5209;SDS011;2624;48.048;11.706;2023-02-28T19:39:26;15.30;;;6.70;;
5209;SDS011;2624;48.048;11.706;2023-02-28T19:44:28;13.27;;;6.47;;
5209;SDS011;2624;48.048;11.706;2023-02-28T19:49:31;14.27;;;7.30;;
5209;SDS011;2624;48.048;11.706;2023-02-28T19:54:33;15.20;;;7.17;;
5209;SDS011;2624;48.048;11.706;2023-02-28T19:59:35;10.30;;;5.77;;
5209;SDS011;2624;48.048;11.706;2023-02-28T20:04:38;7.57;;;4.33;;
5209;SDS011;2624;48.048;11.706;2023-02-28T20:09:39;10.07;;;5.57;;
5209;SDS011;2624;48.048;11.706;2023-02-28T20:14:41;13.30;;;6.50;;
5209;SDS011;2624;48.048;11.706;2023-02-28T20:19:44;12.57;;;6.00;;
5209;SDS011;2624;48.048;11.706;2023-02-28T20:24:46;11.23;;;5.07;;
5209;SDS011;2624;48.048;11.706;2023-02-28T20:29:48;9.63;;;5.57;;
5209;SDS011;2624;48.048;11.706;2023-02-28T20:34:51;6.30;;;4.27;;
5209;SDS011;2624;48.048;11.706;2023-02-28T20:39:53;11.83;;;3.50;;
5209;SDS011;2624;48.048;11.706;2023-02-28T20:44:55;8.37;;;4.87;;
5209;SDS011;2624;48.048;11.706;2023-02-28T20:49:58;7.50;;;4.30;;
5209;SDS011;2624;48.048;11.706;2023-02-28T20:54:59;9.47;;;5.13;;
5209;SDS011;2624;48.048;11.706;2023-02-28T21:00:02;8.10;;;3.80;;
5209;SDS011;2624;48.048;11.706;2023-02-28T21:05:06;8.60;;;4.07;;
5209;SDS011;2624;48.048;11.706;2023-02-28T21:10:08;13.50;;;3.73;;
5209;SDS011;2624;48.048;11.706;2023-02-28T21:15:11;8.77;;;5.30;;
5209;SDS011;2624;48.048;11.706;2023-02-28T21:20:14;9.93;;;5.20;;
5209;SDS011;2624;48.048;11.706;2023-02-28T21:25:20;5.23;;;3.67;;
5209;SDS011;2624;48.048;11.706;2023-02-28T21:30:22;5.37;;;3.90;;
5209;SDS011;2624;48.048;11.706;2023-02-28T21:35:25;8.33;;;3.50;;
5209;SDS011;2624;48.048;11.706;2023-02-28T21:40:27;17.00;;;4.00;;
5209;SDS011;2624;48.048;11.706;2023-02-28T21:45:29;8.07;;;4.10;;
5209;SDS011;2624;48.048;11.706;2023-02-28T21:50:32;6.77;;;4.13;;
5209;SDS011;2624;48.048;11.706;2023-02-28T21:55:34;10.00;;;4.33;;
5209;SDS011;2624;48.048;11.706;2023-02-28T22:00:35;9.20;;;5.50;;
5209;SDS011;2624;48.048;11.706;2023-02-28T22:05:39;12.00;;;6.73;;
5209;SDS011;2624;48.048;11.706;2023-02-28T22:10:40;10.30;;;5.60;;
5209;SDS011;2624;48.048;11.706;2023-02-28T22:15:42;9.73;;;6.17;;
5209;SDS011;2624;48.048;11.706;2023-02-28T22:20:45;10.77;;;5.40;;
5209;SDS011;2624;48.048;11.706;2023-02-28T22:25:54;12.40;;;5.07;;
5209;SDS011;2624;48.048;11.706;2023-02-28T22:30:57;10.83;;;6.43;;
5209;SDS011;2624;48.048;11.706;2023-02-28T22:36:05;17.80;;;5.90;;
5209;SDS011;2624;48.048;11.706;2023-02-28T22:41:07;7.50;;;5.37;;
5209;SDS011;2624;48.048;11.706;2023-02-28T22:46:11;14.03;;;6.83;;
5209;SDS011;2624;48.048;11.706;2023-02-28T22:51:15;7.73;;;4.70;;
5209;SDS011;2624;48.048;11.706;2023-02-28T22:56:19;14.50;;;7.40;;
5209;SDS011;2624;48.048;11.706;2023-02-28T23:01:23;13.17;;;7.13;;
5209;SDS011;2624;48.048;11.706;2023-02-28T23:06:28;9.47;;;5.77;;
5209;SDS011;2624;48.048;11.706;2023-02-28T23:11:32;23.53;;;7.60;;
5209;SDS011;2624;48.048;11.706;2023-02-28T23:16:36;13.73;;;7.83;;
5209;SDS011;2624;48.048;11.706;2023-02-28T23:21:41;10.57;;;5.87;;
5209;SDS011;2624;48.048;11.706;2023-02-28T23:26:43;12.80;;;5.97;;
5209;SDS011;2624;48.048;11.706;2023-02-28T23:31:46;13.50;;;7.23;;
5209;SDS011;2624;48.048;11.706;2023-02-28T23:36:50;10.60;;;6.97;;
5209;SDS011;2624;48.048;11.706;2023-02-28T23:41:53;13.37;;;6.80;;
5209;SDS011;2624;48.048;11.706;2023-02-28T23:46:55;12.87;;;6.50;;
5209;SDS011;2624;48.048;11.706;2023-02-28T23:51:58;17.87;;;7.20;;
5209;SDS011;2624;48.048;11.706;2023-02-28T23:56:59;14.07;;;5.73;;
